Pagrindinis puslapis
METAR-TAF:

METAR-TAF

Oro uostai :

Oslas, Norvegija

platuma: 60-12N, ilguma: 011-05E, Aukštis: 208 m

Dabartinis oras

Ataskaita buvo paskelbta 30 minutes, ne 16:20 UTC
Vėjas 11 kt iš Rytų, svyruoja nuo Rytų/Šiaurės Rytų ir Rytų/Pietryčių
Temperatūra 16°C
Drėgmė 63%
Slėgis 1017 hPa
Matomumas 10 km arba daugiau
Su prošvaistėmis ne aukštis 4200 ft

METAR: ENGM 221620Z 09011KT 060V120 9999 BKN042 16/09 Q1017 NOSIG

Laikas: 18:50 (16:50 UTC)

Prognozė

Prognozė galioja nuo 22 metu 12 UTC su 23 metu 12 UTC
Vėjas 8 kt iš Rytų
Matomumas 10 km arba daugiau
nėra debesų žemiau 1500 m ir nėra kamuolinių lietaus debesų

TAF: ENGM 2212/2312 10008KT CAVOK

Orai ataskaitas ir orų prognozės (METAR, TAF).

turimą stotys yra geltonos ir raudonos taškus žemėlapyje.

Perkelti pele per norėdami pamatyti stoties vardą.

Tada spustelėkite, norėdami matyti oro stebėjimo ir prognozės.

Norėdami pakeisti žemėlapį: spustelėkite ant žalios mygtukų su juodo kryžiaus žemyn,; žalią mygtuką su brūkšneliu, jei norite nutolinti; arba žalių rodyklių gretimoms žemėlapius.


METAR-TAF: